sensor_id;sensor_type;location;lat;lon;timestamp;temperature;humidity
14585;DHT22;7379;51.506;11.876;2023-03-01T00:01:41;2.40;62.80
14585;DHT22;7379;51.506;11.876;2023-03-01T00:04:08;2.40;62.80
14585;DHT22;7379;51.506;11.876;2023-03-01T00:06:35;2.40;62.80
14585;DHT22;7379;51.506;11.876;2023-03-01T00:09:02;2.30;62.70
14585;DHT22;7379;51.506;11.876;2023-03-01T00:11:31;2.30;62.80
14585;DHT22;7379;51.506;11.876;2023-03-01T00:13:59;2.30;62.80
14585;DHT22;7379;51.506;11.876;2023-03-01T00:16:29;2.30;62.80
14585;DHT22;7379;51.506;11.876;2023-03-01T00:18:57;2.30;63.50
14585;DHT22;7379;51.506;11.876;2023-03-01T00:21:26;2.30;62.80
14585;DHT22;7379;51.506;11.876;2023-03-01T00:23:53;2.30;62.80
14585;DHT22;7379;51.506;11.876;2023-03-01T00:26:22;2.30;62.80
14585;DHT22;7379;51.506;11.876;2023-03-01T00:28:49;2.30;62.90
14585;DHT22;7379;51.506;11.876;2023-03-01T00:31:18;2.30;62.90
14585;DHT22;7379;51.506;11.876;2023-03-01T00:33:46;2.30;62.90
14585;DHT22;7379;51.506;11.876;2023-03-01T00:36:15;2.30;62.90
14585;DHT22;7379;51.506;11.876;2023-03-01T00:38:44;2.30;62.80
14585;DHT22;7379;51.506;11.876;2023-03-01T00:41:13;2.20;62.80
14585;DHT22;7379;51.506;11.876;2023-03-01T00:43:40;2.20;62.80
14585;DHT22;7379;51.506;11.876;2023-03-01T00:46:08;2.20;62.80
14585;DHT22;7379;51.506;11.876;2023-03-01T00:48:36;2.20;62.80
14585;DHT22;7379;51.506;11.876;2023-03-01T00:51:06;2.20;62.80
14585;DHT22;7379;51.506;11.876;2023-03-01T00:53:36;2.20;62.90
14585;DHT22;7379;51.506;11.876;2023-03-01T00:56:03;2.20;62.90
14585;DHT22;7379;51.506;11.876;2023-03-01T00:58:30;2.20;62.90
14585;DHT22;7379;51.506;11.876;2023-03-01T01:00:57;2.20;62.90
14585;DHT22;7379;51.506;11.876;2023-03-01T01:03:24;2.10;62.80
14585;DHT22;7379;51.506;11.876;2023-03-01T01:05:51;2.10;62.80
14585;DHT22;7379;51.506;11.876;2023-03-01T01:08:18;2.10;62.80
14585;DHT22;7379;51.506;11.876;2023-03-01T01:10:47;2.10;62.90
14585;DHT22;7379;51.506;11.876;2023-03-01T01:13:14;2.10;62.80
14585;DHT22;7379;51.506;11.876;2023-03-01T01:15:41;2.10;62.90
14585;DHT22;7379;51.506;11.876;2023-03-01T01:18:07;2.10;62.90
14585;DHT22;7379;51.506;11.876;2023-03-01T01:20:35;2.10;62.90
14585;DHT22;7379;51.506;11.876;2023-03-01T01:23:05;2.10;62.90
14585;DHT22;7379;51.506;11.876;2023-03-01T01:25:34;2.10;62.90
14585;DHT22;7379;51.506;11.876;2023-03-01T01:28:03;2.10;62.90
14585;DHT22;7379;51.506;11.876;2023-03-01T01:30:30;2.10;62.90
14585;DHT22;7379;51.506;11.876;2023-03-01T01:32:57;2.00;62.90
14585;DHT22;7379;51.506;11.876;2023-03-01T01:35:24;2.00;62.90
14585;DHT22;7379;51.506;11.876;2023-03-01T01:37:50;2.00;62.90
14585;DHT22;7379;51.506;11.876;2023-03-01T01:40:18;2.00;63.00
14585;DHT22;7379;51.506;11.876;2023-03-01T01:42:44;2.00;63.00
14585;DHT22;7379;51.506;11.876;2023-03-01T01:45:29;2.00;63.00
14585;DHT22;7379;51.506;11.876;2023-03-01T01:47:59;2.00;63.00
14585;DHT22;7379;51.506;11.876;2023-03-01T01:50:28;2.00;63.00
14585;DHT22;7379;51.506;11.876;2023-03-01T01:53:09;2.00;63.00
14585;DHT22;7379;51.506;11.876;2023-03-01T01:55:41;2.00;63.00
14585;DHT22;7379;51.506;11.876;2023-03-01T01:58:10;2.00;63.10
14585;DHT22;7379;51.506;11.876;2023-03-01T02:00:39;1.90;63.00
14585;DHT22;7379;51.506;11.876;2023-03-01T02:03:09;1.90;63.00
14585;DHT22;7379;51.506;11.876;2023-03-01T02:05:39;1.90;63.00
14585;DHT22;7379;51.506;11.876;2023-03-01T02:08:10;1.90;63.00
14585;DHT22;7379;51.506;11.876;2023-03-01T02:10:38;1.90;63.00
14585;DHT22;7379;51.506;11.876;2023-03-01T02:13:06;1.90;63.10
14585;DHT22;7379;51.506;11.876;2023-03-01T02:15:35;1.90;63.80
14585;DHT22;7379;51.506;11.876;2023-03-01T02:18:04;1.90;63.10
14585;DHT22;7379;51.506;11.876;2023-03-01T02:20:35;1.90;63.10
14585;DHT22;7379;51.506;11.876;2023-03-01T02:23:06;1.90;63.80
14585;DHT22;7379;51.506;11.876;2023-03-01T02:25:39;1.90;63.10
14585;DHT22;7379;51.506;11.876;2023-03-01T02:28:19;1.80;63.00
14585;DHT22;7379;51.506;11.876;2023-03-01T02:30:47;1.80;63.00
14585;DHT22;7379;51.506;11.876;2023-03-01T02:33:30;1.80;63.00
14585;DHT22;7379;51.506;11.876;2023-03-01T02:35:58;1.80;63.80
14585;DHT22;7379;51.506;11.876;2023-03-01T02:38:27;1.80;63.10
14585;DHT22;7379;51.506;11.876;2023-03-01T02:40:55;1.80;63.10
14585;DHT22;7379;51.506;11.876;2023-03-01T02:43:28;1.80;63.10
14585;DHT22;7379;51.506;11.876;2023-03-01T02:45:58;1.80;63.10
14585;DHT22;7379;51.506;11.876;2023-03-01T02:48:25;1.80;63.10
14585;DHT22;7379;51.506;11.876;2023-03-01T02:51:03;1.80;63.10
14585;DHT22;7379;51.506;11.876;2023-03-01T02:53:38;1.70;63.10
14585;DHT22;7379;51.506;11.876;2023-03-01T02:56:06;1.70;63.00
14585;DHT22;7379;51.506;11.876;2023-03-01T02:58:40;1.70;63.10
14585;DHT22;7379;51.506;11.876;2023-03-01T03:01:13;1.70;63.10
14585;DHT22;7379;51.506;11.876;2023-03-01T03:03:41;1.70;63.10
14585;DHT22;7379;51.506;11.876;2023-03-01T03:06:08;1.70;63.10
14585;DHT22;7379;51.506;11.876;2023-03-01T03:08:35;1.70;63.10
14585;DHT22;7379;51.506;11.876;2023-03-01T03:11:02;1.70;63.00
14585;DHT22;7379;51.506;11.876;2023-03-01T03:13:29;1.70;63.00
14585;DHT22;7379;51.506;11.876;2023-03-01T03:15:57;1.70;63.00
14585;DHT22;7379;51.506;11.876;2023-03-01T03:18:24;1.70;63.10
14585;DHT22;7379;51.506;11.876;2023-03-01T03:20:52;1.70;63.10
14585;DHT22;7379;51.506;11.876;2023-03-01T03:23:20;1.70;63.10
14585;DHT22;7379;51.506;11.876;2023-03-01T03:25:48;1.60;63.00
14585;DHT22;7379;51.506;11.876;2023-03-01T03:28:15;1.70;63.20
14585;DHT22;7379;51.506;11.876;2023-03-01T03:30:43;1.60;63.00
14585;DHT22;7379;51.506;11.876;2023-03-01T03:33:12;1.60;63.00
14585;DHT22;7379;51.506;11.876;2023-03-01T03:35:41;1.60;63.00
14585;DHT22;7379;51.506;11.876;2023-03-01T03:38:11;1.60;63.00
14585;DHT22;7379;51.506;11.876;2023-03-01T03:40:43;1.60;63.00
14585;DHT22;7379;51.506;11.876;2023-03-01T03:43:12;1.60;63.00
14585;DHT22;7379;51.506;11.876;2023-03-01T03:45:40;1.60;63.10
14585;DHT22;7379;51.506;11.876;2023-03-01T03:48:08;1.60;63.10
14585;DHT22;7379;51.506;11.876;2023-03-01T03:50:38;1.60;63.10
14585;DHT22;7379;51.506;11.876;2023-03-01T03:53:07;1.50;63.10
14585;DHT22;7379;51.506;11.876;2023-03-01T03:55:35;1.50;63.10
14585;DHT22;7379;51.506;11.876;2023-03-01T03:58:05;1.50;63.10
14585;DHT22;7379;51.506;11.876;2023-03-01T04:00:34;1.50;63.10
14585;DHT22;7379;51.506;11.876;2023-03-01T04:03:01;1.50;63.10
14585;DHT22;7379;51.506;11.876;2023-03-01T04:05:29;1.50;63.10
14585;DHT22;7379;51.506;11.876;2023-03-01T04:07:58;1.50;63.10
14585;DHT22;7379;51.506;11.876;2023-03-01T04:10:30;1.50;63.10
14585;DHT22;7379;51.506;11.876;2023-03-01T04:12:57;1.50;63.10
14585;DHT22;7379;51.506;11.876;2023-03-01T04:15:25;1.50;63.10
14585;DHT22;7379;51.506;11.876;2023-03-01T04:17:53;1.50;63.20
14585;DHT22;7379;51.506;11.876;2023-03-01T04:20:23;1.50;63.20
14585;DHT22;7379;51.506;11.876;2023-03-01T04:22:51;1.40;63.20
14585;DHT22;7379;51.506;11.876;2023-03-01T04:25:20;1.40;63.20
14585;DHT22;7379;51.506;11.876;2023-03-01T04:27:47;1.50;63.30
14585;DHT22;7379;51.506;11.876;2023-03-01T04:30:14;1.40;63.20
14585;DHT22;7379;51.506;11.876;2023-03-01T04:32:41;1.40;63.20
14585;DHT22;7379;51.506;11.876;2023-03-01T04:35:08;1.40;63.20
14585;DHT22;7379;51.506;11.876;2023-03-01T04:37:35;1.40;63.20
14585;DHT22;7379;51.506;11.876;2023-03-01T04:40:03;1.40;63.30
14585;DHT22;7379;51.506;11.876;2023-03-01T04:42:39;1.40;63.20
14585;DHT22;7379;51.506;11.876;2023-03-01T04:45:07;1.40;63.30
14585;DHT22;7379;51.506;11.876;2023-03-01T04:47:39;1.40;63.30
14585;DHT22;7379;51.506;11.876;2023-03-01T04:50:07;1.30;63.20
14585;DHT22;7379;51.506;11.876;2023-03-01T04:52:34;1.40;63.30
14585;DHT22;7379;51.506;11.876;2023-03-01T04:55:01;1.30;63.20
14585;DHT22;7379;51.506;11.876;2023-03-01T04:57:29;1.40;63.30
14585;DHT22;7379;51.506;11.876;2023-03-01T04:59:57;1.40;63.30
14585;DHT22;7379;51.506;11.876;2023-03-01T05:02:24;1.30;63.20
14585;DHT22;7379;51.506;11.876;2023-03-01T05:04:51;1.30;63.20
14585;DHT22;7379;51.506;11.876;2023-03-01T05:07:18;1.30;63.20
14585;DHT22;7379;51.506;11.876;2023-03-01T05:09:45;1.30;63.20
14585;DHT22;7379;51.506;11.876;2023-03-01T05:12:13;1.30;63.30
14585;DHT22;7379;51.506;11.876;2023-03-01T05:14:40;1.30;63.30
14585;DHT22;7379;51.506;11.876;2023-03-01T05:17:08;1.30;63.30
14585;DHT22;7379;51.506;11.876;2023-03-01T05:19:35;1.30;63.30
14585;DHT22;7379;51.506;11.876;2023-03-01T05:22:01;1.30;63.30
14585;DHT22;7379;51.506;11.876;2023-03-01T05:24:30;1.30;63.30
14585;DHT22;7379;51.506;11.876;2023-03-01T05:26:57;1.20;63.30
14585;DHT22;7379;51.506;11.876;2023-03-01T05:29:25;1.20;63.30
14585;DHT22;7379;51.506;11.876;2023-03-01T05:31:52;1.20;63.30
14585;DHT22;7379;51.506;11.876;2023-03-01T05:34:23;1.20;63.30
14585;DHT22;7379;51.506;11.876;2023-03-01T05:36:51;1.20;63.30
14585;DHT22;7379;51.506;11.876;2023-03-01T05:39:19;1.20;63.40
14585;DHT22;7379;51.506;11.876;2023-03-01T05:41:47;1.20;63.40
14585;DHT22;7379;51.506;11.876;2023-03-01T05:44:14;1.20;63.40
14585;DHT22;7379;51.506;11.876;2023-03-01T05:46:41;1.20;63.40
14585;DHT22;7379;51.506;11.876;2023-03-01T05:49:08;1.20;63.40
14585;DHT22;7379;51.506;11.876;2023-03-01T05:51:36;1.20;63.40
14585;DHT22;7379;51.506;11.876;2023-03-01T05:54:03;1.20;63.50
14585;DHT22;7379;51.506;11.876;2023-03-01T05:56:32;1.20;63.40
14585;DHT22;7379;51.506;11.876;2023-03-01T05:58:59;1.20;63.40
14585;DHT22;7379;51.506;11.876;2023-03-01T06:01:26;1.10;63.30
14585;DHT22;7379;51.506;11.876;2023-03-01T06:03:53;1.10;63.30
14585;DHT22;7379;51.506;11.876;2023-03-01T06:06:20;1.10;63.40
14585;DHT22;7379;51.506;11.876;2023-03-01T06:08:48;1.10;63.40
14585;DHT22;7379;51.506;11.876;2023-03-01T06:11:15;1.10;63.40
14585;DHT22;7379;51.506;11.876;2023-03-01T06:13:42;1.10;63.40
14585;DHT22;7379;51.506;11.876;2023-03-01T06:16:09;1.10;63.40
14585;DHT22;7379;51.506;11.876;2023-03-01T06:18:37;1.10;63.40
14585;DHT22;7379;51.506;11.876;2023-03-01T06:21:05;1.10;63.40
14585;DHT22;7379;51.506;11.876;2023-03-01T06:23:32;1.10;63.40
14585;DHT22;7379;51.506;11.876;2023-03-01T06:26:00;1.10;63.50
14585;DHT22;7379;51.506;11.876;2023-03-01T06:28:27;1.10;63.50
14585;DHT22;7379;51.506;11.876;2023-03-01T06:30:54;1.10;63.50
14585;DHT22;7379;51.506;11.876;2023-03-01T06:33:20;1.10;63.50
14585;DHT22;7379;51.506;11.876;2023-03-01T06:35:49;1.10;63.50
14585;DHT22;7379;51.506;11.876;2023-03-01T06:38:17;1.00;63.40
14585;DHT22;7379;51.506;11.876;2023-03-01T06:40:44;1.00;63.40
14585;DHT22;7379;51.506;11.876;2023-03-01T06:43:13;1.00;63.50
14585;DHT22;7379;51.506;11.876;2023-03-01T06:45:39;1.00;63.50
14585;DHT22;7379;51.506;11.876;2023-03-01T06:48:07;1.00;63.50
14585;DHT22;7379;51.506;11.876;2023-03-01T06:50:35;1.00;63.50
14585;DHT22;7379;51.506;11.876;2023-03-01T06:53:03;1.00;63.50
14585;DHT22;7379;51.506;11.876;2023-03-01T06:55:30;1.00;63.50
14585;DHT22;7379;51.506;11.876;2023-03-01T06:57:58;1.00;63.50
14585;DHT22;7379;51.506;11.876;2023-03-01T07:00:27;1.00;63.60
14585;DHT22;7379;51.506;11.876;2023-03-01T07:02:55;1.00;63.60
14585;DHT22;7379;51.506;11.876;2023-03-01T07:05:24;1.00;63.60
14585;DHT22;7379;51.506;11.876;2023-03-01T07:07:51;1.00;63.70
14585;DHT22;7379;51.506;11.876;2023-03-01T07:10:19;1.00;63.70
14585;DHT22;7379;51.506;11.876;2023-03-01T07:12:46;1.00;63.70
14585;DHT22;7379;51.506;11.876;2023-03-01T07:15:12;1.00;63.70
14585;DHT22;7379;51.506;11.876;2023-03-01T07:17:42;1.00;63.70
14585;DHT22;7379;51.506;11.876;2023-03-01T07:20:11;1.00;63.70
14585;DHT22;7379;51.506;11.876;2023-03-01T07:22:40;1.00;63.80
14585;DHT22;7379;51.506;11.876;2023-03-01T07:25:08;0.90;63.80
14585;DHT22;7379;51.506;11.876;2023-03-01T07:27:35;0.90;63.80
14585;DHT22;7379;51.506;11.876;2023-03-01T07:30:03;0.90;63.80
14585;DHT22;7379;51.506;11.876;2023-03-01T07:32:30;0.90;63.80
14585;DHT22;7379;51.506;11.876;2023-03-01T07:34:58;0.90;63.90
14585;DHT22;7379;51.506;11.876;2023-03-01T07:37:25;0.90;63.90
14585;DHT22;7379;51.506;11.876;2023-03-01T07:39:51;0.90;63.90
14585;DHT22;7379;51.506;11.876;2023-03-01T07:42:18;0.90;64.00
14585;DHT22;7379;51.506;11.876;2023-03-01T07:44:45;1.00;64.10
14585;DHT22;7379;51.506;11.876;2023-03-01T07:47:12;1.00;64.20
14585;DHT22;7379;51.506;11.876;2023-03-01T07:49:38;1.00;64.10
14585;DHT22;7379;51.506;11.876;2023-03-01T07:52:07;1.00;64.10
14585;DHT22;7379;51.506;11.876;2023-03-01T07:54:35;1.10;64.10
14585;DHT22;7379;51.506;11.876;2023-03-01T07:57:02;1.10;64.00
14585;DHT22;7379;51.506;11.876;2023-03-01T07:59:29;1.10;64.10
14585;DHT22;7379;51.506;11.876;2023-03-01T08:01:56;1.10;64.10
14585;DHT22;7379;51.506;11.876;2023-03-01T08:04:23;1.10;64.10
14585;DHT22;7379;51.506;11.876;2023-03-01T08:06:52;1.20;64.10
14585;DHT22;7379;51.506;11.876;2023-03-01T08:09:21;1.20;64.20
14585;DHT22;7379;51.506;11.876;2023-03-01T08:11:48;1.20;64.10
14585;DHT22;7379;51.506;11.876;2023-03-01T08:14:15;1.20;64.10
14585;DHT22;7379;51.506;11.876;2023-03-01T08:16:42;1.20;64.10
14585;DHT22;7379;51.506;11.876;2023-03-01T08:19:11;1.20;64.20
14585;DHT22;7379;51.506;11.876;2023-03-01T08:21:38;1.20;64.10
14585;DHT22;7379;51.506;11.876;2023-03-01T08:24:06;1.20;64.20
14585;DHT22;7379;51.506;11.876;2023-03-01T08:26:34;1.30;64.30
14585;DHT22;7379;51.506;11.876;2023-03-01T08:29:01;1.30;64.30
14585;DHT22;7379;51.506;11.876;2023-03-01T08:31:30;1.30;64.40
14585;DHT22;7379;51.506;11.876;2023-03-01T08:33:59;1.30;64.40
14585;DHT22;7379;51.506;11.876;2023-03-01T08:36:27;1.30;64.30
14585;DHT22;7379;51.506;11.876;2023-03-01T08:38:54;1.30;64.20
14585;DHT22;7379;51.506;11.876;2023-03-01T08:41:21;1.30;64.40
14585;DHT22;7379;51.506;11.876;2023-03-01T08:43:50;1.30;65.30
14585;DHT22;7379;51.506;11.876;2023-03-01T08:46:18;1.30;64.40
14585;DHT22;7379;51.506;11.876;2023-03-01T08:48:45;1.30;64.50
14585;DHT22;7379;51.506;11.876;2023-03-01T08:51:13;1.30;64.60
14585;DHT22;7379;51.506;11.876;2023-03-01T08:53:41;1.30;64.60
14585;DHT22;7379;51.506;11.876;2023-03-01T08:56:08;1.20;64.60
14585;DHT22;7379;51.506;11.876;2023-03-01T08:58:36;1.20;64.60
14585;DHT22;7379;51.506;11.876;2023-03-01T09:01:08;1.20;64.70
14585;DHT22;7379;51.506;11.876;2023-03-01T09:03:36;1.20;64.80
14585;DHT22;7379;51.506;11.876;2023-03-01T09:06:04;1.20;64.90
14585;DHT22;7379;51.506;11.876;2023-03-01T09:08:34;1.20;65.00
14585;DHT22;7379;51.506;11.876;2023-03-01T09:11:02;1.20;65.00
14585;DHT22;7379;51.506;11.876;2023-03-01T09:13:29;1.20;65.10
14585;DHT22;7379;51.506;11.876;2023-03-01T09:15:57;1.20;65.10
14585;DHT22;7379;51.506;11.876;2023-03-01T09:18:25;1.20;65.10
14585;DHT22;7379;51.506;11.876;2023-03-01T09:20:52;1.20;65.10
14585;DHT22;7379;51.506;11.876;2023-03-01T09:23:21;1.20;65.20
14585;DHT22;7379;51.506;11.876;2023-03-01T09:25:48;1.20;65.20
14585;DHT22;7379;51.506;11.876;2023-03-01T09:28:15;1.20;65.30
14585;DHT22;7379;51.506;11.876;2023-03-01T09:30:42;1.20;65.30
14585;DHT22;7379;51.506;11.876;2023-03-01T09:33:08;1.20;65.30
14585;DHT22;7379;51.506;11.876;2023-03-01T09:35:41;1.20;65.30
14585;DHT22;7379;51.506;11.876;2023-03-01T09:38:12;1.30;65.50
14585;DHT22;7379;51.506;11.876;2023-03-01T09:40:43;1.30;65.40
14585;DHT22;7379;51.506;11.876;2023-03-01T09:43:18;1.30;65.40
14585;DHT22;7379;51.506;11.876;2023-03-01T09:45:47;1.30;65.40
14585;DHT22;7379;51.506;11.876;2023-03-01T09:48:18;1.30;65.50
14585;DHT22;7379;51.506;11.876;2023-03-01T09:50:49;1.30;65.60
14585;DHT22;7379;51.506;11.876;2023-03-01T09:53:18;1.30;65.50
14585;DHT22;7379;51.506;11.876;2023-03-01T09:55:50;1.30;65.40
14585;DHT22;7379;51.506;11.876;2023-03-01T09:58:39;1.30;65.30
14585;DHT22;7379;51.506;11.876;2023-03-01T10:01:32;1.30;65.20
14585;DHT22;7379;51.506;11.876;2023-03-01T10:04:11;1.40;65.30
14585;DHT22;7379;51.506;11.876;2023-03-01T10:06:43;1.40;65.30
14585;DHT22;7379;51.506;11.876;2023-03-01T10:09:13;1.40;65.30
14585;DHT22;7379;51.506;11.876;2023-03-01T10:11:44;1.40;65.20
14585;DHT22;7379;51.506;11.876;2023-03-01T10:14:32;1.40;66.00
14585;DHT22;7379;51.506;11.876;2023-03-01T10:17:01;1.40;65.30
14585;DHT22;7379;51.506;11.876;2023-03-01T10:19:32;1.40;65.20
14585;DHT22;7379;51.506;11.876;2023-03-01T10:22:05;1.40;65.90
14585;DHT22;7379;51.506;11.876;2023-03-01T10:24:36;1.50;65.30
14585;DHT22;7379;51.506;11.876;2023-03-01T10:27:07;1.40;65.10
14585;DHT22;7379;51.506;11.876;2023-03-01T10:29:39;1.40;65.20
14585;DHT22;7379;51.506;11.876;2023-03-01T10:32:10;1.50;65.30
14585;DHT22;7379;51.506;11.876;2023-03-01T10:34:37;1.50;65.30
14585;DHT22;7379;51.506;11.876;2023-03-01T10:37:11;1.50;65.30
14585;DHT22;7379;51.506;11.876;2023-03-01T10:39:55;1.50;65.30
14585;DHT22;7379;51.506;11.876;2023-03-01T10:42:26;1.50;65.30
14585;DHT22;7379;51.506;11.876;2023-03-01T10:44:54;1.50;65.30
14585;DHT22;7379;51.506;11.876;2023-03-01T10:47:23;1.50;65.30
14585;DHT22;7379;51.506;11.876;2023-03-01T10:49:57;1.50;65.30
14585;DHT22;7379;51.506;11.876;2023-03-01T10:52:29;1.50;65.30
14585;DHT22;7379;51.506;11.876;2023-03-01T10:54:57;1.50;65.40
14585;DHT22;7379;51.506;11.876;2023-03-01T10:57:29;1.60;65.50
14585;DHT22;7379;51.506;11.876;2023-03-01T11:00:22;1.60;65.60
14585;DHT22;7379;51.506;11.876;2023-03-01T11:03:02;1.60;65.70
14585;DHT22;7379;51.506;11.876;2023-03-01T11:05:29;1.60;65.60
14585;DHT22;7379;51.506;11.876;2023-03-01T11:08:01;1.60;65.60
14585;DHT22;7379;51.506;11.876;2023-03-01T11:10:31;1.60;65.50
14585;DHT22;7379;51.506;11.876;2023-03-01T11:13:08;1.60;65.50
14585;DHT22;7379;51.506;11.876;2023-03-01T11:15:39;1.70;65.60
14585;DHT22;7379;51.506;11.876;2023-03-01T11:18:18;1.70;65.50
14585;DHT22;7379;51.506;11.876;2023-03-01T11:20:46;1.70;65.60
14585;DHT22;7379;51.506;11.876;2023-03-01T11:23:15;1.70;65.50
14585;DHT22;7379;51.506;11.876;2023-03-01T11:25:45;1.80;65.50
14585;DHT22;7379;51.506;11.876;2023-03-01T11:28:16;1.80;65.30
14585;DHT22;7379;51.506;11.876;2023-03-01T11:30:50;1.80;65.30
14585;DHT22;7379;51.506;11.876;2023-03-01T11:33:24;1.80;65.20
14585;DHT22;7379;51.506;11.876;2023-03-01T11:36:00;1.90;65.10
14585;DHT22;7379;51.506;11.876;2023-03-01T11:38:32;1.90;65.00
14585;DHT22;7379;51.506;11.876;2023-03-01T11:41:06;1.90;65.00
14585;DHT22;7379;51.506;11.876;2023-03-01T11:43:40;2.00;65.00
14585;DHT22;7379;51.506;11.876;2023-03-01T11:46:32;2.00;64.90
14585;DHT22;7379;51.506;11.876;2023-03-01T11:49:17;2.00;64.90
14585;DHT22;7379;51.506;11.876;2023-03-01T11:51:51;2.00;64.70
14585;DHT22;7379;51.506;11.876;2023-03-01T11:54:30;2.00;64.60
14585;DHT22;7379;51.506;11.876;2023-03-01T11:57:02;2.10;64.30
14585;DHT22;7379;51.506;11.876;2023-03-01T11:59:49;2.10;64.30
14585;DHT22;7379;51.506;11.876;2023-03-01T12:05:26;2.10;64.10
14585;DHT22;7379;51.506;11.876;2023-03-01T12:08:05;2.20;64.00
14585;DHT22;7379;51.506;11.876;2023-03-01T12:10:43;2.20;64.10
14585;DHT22;7379;51.506;11.876;2023-03-01T12:13:27;2.20;63.80
14585;DHT22;7379;51.506;11.876;2023-03-01T12:16:14;2.20;63.60
14585;DHT22;7379;51.506;11.876;2023-03-01T12:19:00;2.30;63.50
14585;DHT22;7379;51.506;11.876;2023-03-01T12:21:42;2.40;63.60
14585;DHT22;7379;51.506;11.876;2023-03-01T12:27:27;2.70;61.70
14585;DHT22;7379;51.506;11.876;2023-03-01T12:30:09;2.90;60.70
14585;DHT22;7379;51.506;11.876;2023-03-01T12:32:49;3.20;60.00
14585;DHT22;7379;51.506;11.876;2023-03-01T12:38:21;3.40;58.50
14585;DHT22;7379;51.506;11.876;2023-03-01T12:41:16;3.50;58.80
14585;DHT22;7379;51.506;11.876;2023-03-01T12:43:59;3.40;59.70
14585;DHT22;7379;51.506;11.876;2023-03-01T12:46:38;3.40;59.20
14585;DHT22;7379;51.506;11.876;2023-03-01T12:49:10;3.30;59.40
14585;DHT22;7379;51.506;11.876;2023-03-01T12:51:40;3.30;60.50
14585;DHT22;7379;51.506;11.876;2023-03-01T12:54:15;3.20;60.00
14585;DHT22;7379;51.506;11.876;2023-03-01T12:56:43;3.20;60.00
14585;DHT22;7379;51.506;11.876;2023-03-01T12:59:23;3.20;60.00
14585;DHT22;7379;51.506;11.876;2023-03-01T13:01:56;3.10;60.00
14585;DHT22;7379;51.506;11.876;2023-03-01T13:04:37;3.20;60.00
14585;DHT22;7379;51.506;11.876;2023-03-01T13:07:16;3.20;59.90
14585;DHT22;7379;51.506;11.876;2023-03-01T13:09:54;3.20;59.80
14585;DHT22;7379;51.506;11.876;2023-03-01T13:12:50;3.10;59.80
14585;DHT22;7379;51.506;11.876;2023-03-01T13:15:32;3.20;59.80
14585;DHT22;7379;51.506;11.876;2023-03-01T13:18:01;3.20;59.40
14585;DHT22;7379;51.506;11.876;2023-03-01T13:20:35;3.30;59.10
14585;DHT22;7379;51.506;11.876;2023-03-01T13:23:26;3.30;59.20
14585;DHT22;7379;51.506;11.876;2023-03-01T13:26:20;3.40;58.60
14585;DHT22;7379;51.506;11.876;2023-03-01T13:28:55;3.40;58.20
14585;DHT22;7379;51.506;11.876;2023-03-01T13:32:00;3.40;58.00
14585;DHT22;7379;51.506;11.876;2023-03-01T13:34:59;3.30;58.80
14585;DHT22;7379;51.506;11.876;2023-03-01T13:37:35;3.40;58.10
14585;DHT22;7379;51.506;11.876;2023-03-01T13:42:51;3.40;58.00
14585;DHT22;7379;51.506;11.876;2023-03-01T13:45:34;3.40;57.90
14585;DHT22;7379;51.506;11.876;2023-03-01T13:48:09;3.40;57.90
14585;DHT22;7379;51.506;11.876;2023-03-01T13:50:43;3.40;57.70
14585;DHT22;7379;51.506;11.876;2023-03-01T13:53:15;3.40;57.70
14585;DHT22;7379;51.506;11.876;2023-03-01T13:55:45;3.40;57.70
14585;DHT22;7379;51.506;11.876;2023-03-01T13:58:22;3.40;57.70
14585;DHT22;7379;51.506;11.876;2023-03-01T14:00:56;3.50;57.90
14585;DHT22;7379;51.506;11.876;2023-03-01T14:03:25;3.50;56.90
14585;DHT22;7379;51.506;11.876;2023-03-01T14:06:04;3.60;56.70
14585;DHT22;7379;51.506;11.876;2023-03-01T14:08:33;3.50;56.50
14585;DHT22;7379;51.506;11.876;2023-03-01T14:11:24;3.60;56.70
14585;DHT22;7379;51.506;11.876;2023-03-01T14:14:07;3.60;57.30
14585;DHT22;7379;51.506;11.876;2023-03-01T14:16:45;3.60;56.50
14585;DHT22;7379;51.506;11.876;2023-03-01T14:19:19;3.70;56.70
14585;DHT22;7379;51.506;11.876;2023-03-01T14:21:59;3.80;56.50
14585;DHT22;7379;51.506;11.876;2023-03-01T14:24:27;3.90;56.40
14585;DHT22;7379;51.506;11.876;2023-03-01T14:26:54;4.00;56.00
14585;DHT22;7379;51.506;11.876;2023-03-01T14:29:25;4.10;55.80
14585;DHT22;7379;51.506;11.876;2023-03-01T14:31:52;4.20;55.70
14585;DHT22;7379;51.506;11.876;2023-03-01T14:34:22;4.20;55.70
14585;DHT22;7379;51.506;11.876;2023-03-01T14:36:50;4.30;55.60
14585;DHT22;7379;51.506;11.876;2023-03-01T14:39:19;4.40;55.10
14585;DHT22;7379;51.506;11.876;2023-03-01T14:41:47;4.50;54.90
14585;DHT22;7379;51.506;11.876;2023-03-01T14:44:19;4.40;55.20
14585;DHT22;7379;51.506;11.876;2023-03-01T14:46:46;4.50;55.40
14585;DHT22;7379;51.506;11.876;2023-03-01T14:49:26;4.50;55.30
14585;DHT22;7379;51.506;11.876;2023-03-01T14:52:01;4.50;55.20
14585;DHT22;7379;51.506;11.876;2023-03-01T14:54:35;4.60;54.90
14585;DHT22;7379;51.506;11.876;2023-03-01T14:57:03;4.70;54.90
14585;DHT22;7379;51.506;11.876;2023-03-01T14:59:33;4.60;54.80
14585;DHT22;7379;51.506;11.876;2023-03-01T15:02:00;4.60;54.70
14585;DHT22;7379;51.506;11.876;2023-03-01T15:04:29;4.70;54.20
14585;DHT22;7379;51.506;11.876;2023-03-01T15:06:57;4.80;53.90
14585;DHT22;7379;51.506;11.876;2023-03-01T15:09:32;4.80;54.50
14585;DHT22;7379;51.506;11.876;2023-03-01T15:12:00;4.70;54.50
14585;DHT22;7379;51.506;11.876;2023-03-01T15:14:47;4.70;54.60
14585;DHT22;7379;51.506;11.876;2023-03-01T15:17:21;4.70;54.40
14585;DHT22;7379;51.506;11.876;2023-03-01T15:19:50;4.80;54.50
14585;DHT22;7379;51.506;11.876;2023-03-01T15:22:17;4.80;54.50
14585;DHT22;7379;51.506;11.876;2023-03-01T15:24:47;4.80;54.40
14585;DHT22;7379;51.506;11.876;2023-03-01T15:27:16;4.80;54.50
14585;DHT22;7379;51.506;11.876;2023-03-01T15:29:48;4.80;54.10
14585;DHT22;7379;51.506;11.876;2023-03-01T15:32:26;4.80;54.40
14585;DHT22;7379;51.506;11.876;2023-03-01T15:34:54;4.80;54.70
14585;DHT22;7379;51.506;11.876;2023-03-01T15:37:38;4.70;54.90
14585;DHT22;7379;51.506;11.876;2023-03-01T15:40:19;4.60;55.50
14585;DHT22;7379;51.506;11.876;2023-03-01T15:42:46;4.50;56.00
14585;DHT22;7379;51.506;11.876;2023-03-01T15:45:22;4.50;55.80
14585;DHT22;7379;51.506;11.876;2023-03-01T15:47:51;4.40;56.30
14585;DHT22;7379;51.506;11.876;2023-03-01T15:50:22;4.40;56.40
14585;DHT22;7379;51.506;11.876;2023-03-01T15:52:51;4.30;56.70
14585;DHT22;7379;51.506;11.876;2023-03-01T15:55:19;4.30;56.90
14585;DHT22;7379;51.506;11.876;2023-03-01T15:57:47;4.30;57.00
14585;DHT22;7379;51.506;11.876;2023-03-01T16:00:15;4.20;57.20
14585;DHT22;7379;51.506;11.876;2023-03-01T16:02:43;4.20;57.30
14585;DHT22;7379;51.506;11.876;2023-03-01T16:05:17;4.20;57.60
14585;DHT22;7379;51.506;11.876;2023-03-01T16:07:45;4.20;57.60
14585;DHT22;7379;51.506;11.876;2023-03-01T16:10:12;4.20;57.60
14585;DHT22;7379;51.506;11.876;2023-03-01T16:12:39;4.10;57.90
14585;DHT22;7379;51.506;11.876;2023-03-01T16:15:15;4.10;57.90
14585;DHT22;7379;51.506;11.876;2023-03-01T16:17:42;4.10;58.10
14585;DHT22;7379;51.506;11.876;2023-03-01T16:20:10;4.10;58.30